Terminal Aerodrome Forecast
Issued by NWS Grand Forks, ND

Home | Current Version | Previous Version | Text Only | Print | Product List | Glossary Off
Versions: 1 2 3 4 5 6 7 8 9 10 11 12 13 14 15 16 17 18

000
FTUS43 KFGF 220500
TAFFAR
TAF
KFAR 220537Z 2206/2306 14010KT 3SM BR OVC005
     FM221600 10010KT 4SM -RA BR OVC005
     FM230000 05010KT 5SM -RASN OVC005=

USA.gov is the U.S. government's official web portal to all federal, state and local government web resources and services.